Time;durP1;ratioP1;P1;durP2;ratioP2;P2;SDS_P1;SDS_P2;PMS_P1;PMS_P2;Temp;Humidity;BMP_temperature;BMP_pressure;BME280_temperature;BME280_humidity;BME280_pressure;Samples;Min_cycle;Max_cycle;Signal;HPM_P1;HPM_P2
2022/08/12 00:43:53;;;;;;;4.35;3.13;;;;;;;19.11;54.46;101816.25;5051638;28;20068;-74
2022/08/12 00:46:30;;;;;;;7.53;3.42;;;;;;;19.08;54.01;101816.53;5049575;28;20013;-76
2022/08/12 00:48:57;;;;;;;5.60;3.05;;;;;;;19.06;55.53;101814.00;5043844;28;20079;-81
2022/08/12 00:52:04;;;;;;;5.63;3.05;;;;;;;19.18;53.75;101811.16;5049874;28;20031;-75
2022/08/12 00:54:10;;;;;;;6.30;3.35;;;;;;;19.21;53.63;101810.88;5050436;28;20043;-81
2022/08/12 00:56:38;;;;;;;8.50;3.08;;;;;;;19.25;53.40;101807.78;5050087;28;20029;-81
2022/08/12 00:59:04;;;;;;;12.05;3.70;;;;;;;19.36;52.23;101812.94;5050344;28;20033;-75
2022/08/12 01:01:32;;;;;;;10.10;3.15;;;;;;;19.40;51.89;101800.97;5049263;28;20021;-75
2022/08/12 01:12:15;;;;;;;7.55;3.15;;;;;;;19.66;50.83;101803.00;5049284;28;20063;-75
2022/08/12 01:14:42;;;;;;;6.75;2.95;;;;;;;19.70;50.85;101804.38;5048896;28;20818;-75
2022/08/12 01:17:07;;;;;;;8.80;3.47;;;;;;;19.73;50.79;101795.22;5048000;28;20071;-75
2022/08/12 01:19:32;;;;;;;4.63;3.08;;;;;;;19.76;50.54;101802.94;5050907;28;20039;-75
2022/08/12 01:22:24;;;;;;;8.02;2.88;;;;;;;19.77;50.28;101802.78;5047666;28;20505;-75
2022/08/12 01:24:55;;;;;;;6.25;2.97;;;;;;;19.79;50.46;101795.47;5050178;28;20031;-75
2022/08/12 01:27:22;;;;;;;4.68;3.08;;;;;;;19.79;50.49;101798.13;5050541;28;20482;-75
2022/08/12 01:29:49;;;;;;;7.88;3.22;;;;;;;19.85;50.26;101802.03;5050626;28;20368;-75
2022/08/12 01:32:17;;;;;;;8.70;3.47;;;;;;;19.87;50.29;101808.91;5049033;28;20060;-75
2022/08/12 01:35:10;;;;;;;10.80;3.08;;;;;;;19.86;50.39;101807.22;5049232;28;20016;-75
2022/08/12 01:38:01;;;;;;;4.43;2.80;;;;;;;19.83;50.51;101804.00;5048262;28;20106;-75
2022/08/12 01:40:30;;;;;;;14.75;3.17;;;;;;;19.81;50.46;101806.84;5048644;28;20063;-75
2022/08/12 01:43:04;;;;;;;8.63;3.17;;;;;;;19.84;50.63;101808.34;5050341;28;20025;-75
2022/08/12 01:45:33;;;;;;;4.78;3.28;;;;;;;19.81;50.69;101804.16;5049692;28;20103;-75
2022/08/12 01:48:03;;;;;;;6.25;3.15;;;;;;;19.78;50.88;101804.47;5049132;28;20029;-75
2022/08/12 01:50:40;;;;;;;10.80;3.20;;;;;;;19.74;50.75;101805.75;5050084;28;20029;-75
2022/08/12 01:53:10;;;;;;;4.47;3.03;;;;;;;19.71;51.29;101804.22;5049141;28;20402;-81
2022/08/12 01:55:40;;;;;;;6.75;3.60;;;;;;;19.69;51.38;101800.03;5046915;28;20486;-81
2022/08/12 01:58:25;;;;;;;5.82;3.25;;;;;;;19.68;51.21;101795.69;5049387;28;20032;-81
2022/08/12 02:01:03;;;;;;;8.68;3.60;;;;;;;19.66;51.33;101797.66;5049220;28;21243;-81
2022/08/12 02:12:57;;;;;;;9.40;3.33;;;;;;;19.54;52.08;101786.31;5044088;28;20052;-81
2022/08/12 02:15:38;;;;;;;5.00;3.42;;;;;;;19.50;52.23;101789.41;5049171;28;20032;-81
2022/08/12 02:18:36;;;;;;;4.82;3.63;;;;;;;19.51;51.49;101793.75;5047497;28;20029;-81
2022/08/12 02:21:37;;;;;;;7.95;3.50;;;;;;;19.45;52.58;101789.00;5048155;28;20417;-81
2022/08/12 02:24:03;;;;;;;5.55;3.70;;;;;;;19.37;52.59;101790.59;5048735;28;20359;-81
2022/08/12 02:26:32;;;;;;;6.75;3.90;;;;;;;19.34;52.90;101784.72;5081566;28;20020;-81
2022/08/12 02:28:58;;;;;;;8.80;3.90;;;;;;;19.31;53.15;101785.84;5042438;28;20449;-82
2022/08/12 02:31:26;;;;;;;6.88;4.03;;;;;;;19.28;53.36;101791.47;5049800;28;20033;-81
2022/08/12 02:33:58;;;;;;;6.43;3.75;;;;;;;19.26;53.26;101787.28;5047463;28;20025;-81
2022/08/12 02:36:24;;;;;;;7.18;3.90;;;;;;;19.28;53.35;101779.97;5039533;28;20407;-81
2022/08/12 02:38:50;;;;;;;11.88;3.92;;;;;;;19.22;53.69;101784.06;5041943;28;20035;-81
2022/08/12 02:41:20;;;;;;;7.60;3.88;;;;;;;19.20;53.76;101787.84;5048402;28;20049;-81
2022/08/12 02:43:51;;;;;;;7.50;3.97;;;;;;;19.16;53.80;101781.13;5046861;28;20487;-81
2022/08/12 02:46:27;;;;;;;6.10;4.00;;;;;;;19.17;53.87;101788.97;5065791;28;20188;-76
2022/08/12 02:49:01;;;;;;;8.77;4.28;;;;;;;19.14;54.16;101783.09;5028615;28;20029;-76
2022/08/12 02:51:33;;;;;;;7.22;4.38;;;;;;;19.11;54.09;101781.56;5029429;28;20033;-76
2022/08/12 02:54:04;;;;;;;6.45;3.97;;;;;;;19.09;54.29;101780.88;5029062;28;20109;-75
2022/08/12 02:56:29;;;;;;;8.13;4.30;;;;;;;19.02;54.55;101783.28;5028799;28;20059;-82
2022/08/12 02:58:56;;;;;;;7.75;4.57;;;;;;;19.01;54.64;101783.44;5032000;28;20066;-81
2022/08/12 03:01:32;;;;;;;5.53;4.10;;;;;;;18.96;54.83;101785.69;5040670;28;20383;-75
2022/08/12 03:04:00;;;;;;;8.13;3.92;;;;;;;18.93;55.33;101791.31;5050221;28;20071;-82
2022/08/12 03:06:33;;;;;;;8.75;4.70;;;;;;;18.88;55.25;101782.91;5053051;28;20063;-75
2022/08/12 03:09:00;;;;;;;7.85;4.28;;;;;;;18.91;55.38;101777.28;5052419;28;20429;-76
2022/08/12 03:11:35;;;;;;;9.30;4.50;;;;;;;18.82;55.72;101779.00;5052652;28;20490;-82
2022/08/12 03:14:01;;;;;;;6.10;4.45;;;;;;;18.84;55.63;101778.88;5051017;28;20368;-81
2022/08/12 03:16:31;;;;;;;9.90;4.47;;;;;;;18.78;55.79;101778.44;5051631;28;20051;-81
2022/08/12 03:18:57;;;;;;;7.85;4.60;;;;;;;18.78;55.89;101774.91;5050483;28;20079;-81
2022/08/12 03:21:26;;;;;;;8.15;4.50;;;;;;;18.71;56.19;101769.31;5050508;28;20061;-82
2022/08/12 03:23:58;;;;;;;10.73;4.85;;;;;;;18.70;56.20;101777.47;5050110;28;20063;-82
2022/08/12 03:26:27;;;;;;;10.32;5.10;;;;;;;18.65;56.36;101772.56;5052214;28;20112;-82
2022/08/12 03:28:55;;;;;;;7.13;5.30;;;;;;;18.60;56.76;101779.28;5051070;28;20475;-81
2022/08/12 03:31:30;;;;;;;9.00;4.65;;;;;;;18.57;56.52;101775.09;5050290;28;20027;-81
2022/08/12 03:34:01;;;;;;;9.98;5.30;;;;;;;18.54;57.05;101774.53;5050624;28;20119;-82
2022/08/12 03:36:29;;;;;;;10.90;4.93;;;;;;;18.46;57.48;101768.09;5046570;28;20028;-81
2022/08/12 03:39:20;;;;;;;8.48;5.30;;;;;;;18.48;57.42;101762.63;5046037;28;20055;-82
2022/08/12 03:42:04;;;;;;;9.70;5.63;;;;;;;18.45;57.04;101765.56;5052450;28;20068;-82
2022/08/12 04:01:21;;;;;;;8.25;5.53;;;;;;;18.23;58.74;101776.50;5052319;28;20044;-82
2022/08/12 04:03:51;;;;;;;10.38;5.55;;;;;;;18.16;58.90;101771.75;5051553;28;20075;-82
2022/08/12 04:06:20;;;;;;;7.55;5.90;;;;;;;18.13;59.32;101777.34;5049963;28;20226;-81
2022/08/12 04:08:49;;;;;;;8.18;6.00;;;;;;;18.04;59.63;101778.19;5051326;28;20021;-81
2022/08/12 04:14:11;;;;;;;13.15;6.07;;;;;;;18.02;59.64;101780.16;5030948;28;20083;-81
2022/08/12 04:16:38;;;;;;;8.95;6.07;;;;;;;17.97;60.29;101785.03;5031842;28;20184;-81
2022/08/12 04:19:05;;;;;;;12.85;6.28;;;;;;;17.94;60.33;101782.66;5064493;28;20037;-82
2022/08/12 04:21:32;;;;;;;7.68;6.15;;;;;;;17.94;60.41;101782.66;5051174;28;20071;-82
2022/08/12 04:23:58;;;;;;;9.45;6.43;;;;;;;17.90;60.76;101786.56;5051192;28;20612;-82
2022/08/12 04:26:24;;;;;;;10.85;6.80;;;;;;;17.85;60.54;101784.31;5051112;28;20434;-76
2022/08/12 04:28:49;;;;;;;9.20;7.13;;;;;;;17.83;61.06;101785.44;5050052;28;20079;-75
2022/08/12 04:31:14;;;;;;;18.00;7.40;;;;;;;17.83;61.15;101782.78;5050270;28;20025;-76
2022/08/12 04:33:42;;;;;;;11.10;6.65;;;;;;;17.78;61.66;101772.53;5049710;28;20020;-83
2022/08/12 04:36:08;;;;;;;9.93;6.95;;;;;;;17.83;61.40;101785.44;5051003;28;20025;-81
2022/08/12 04:38:34;;;;;;;12.60;7.00;;;;;;;17.77;61.69;101783.34;5051236;28;20398;-82
2022/08/12 04:41:02;;;;;;;10.10;6.40;;;;;;;17.75;61.73;101787.94;5050109;28;20387;-76
2022/08/12 04:43:28;;;;;;;10.52;6.85;;;;;;;17.77;61.68;101786.00;5051094;28;20043;-75
2022/08/12 04:45:54;;;;;;;9.10;6.80;;;;;;;17.80;61.87;101783.91;5045347;28;20494;-82
2022/08/12 04:48:20;;;;;;;13.93;7.22;;;;;;;17.80;61.87;101781.22;5050887;28;20033;-82
2022/08/12 04:50:45;;;;;;;13.32;7.35;;;;;;;17.76;62.00;101784.31;5051981;28;20029;-82
2022/08/12 04:53:12;;;;;;;12.20;7.30;;;;;;;17.80;62.22;101777.72;5051057;28;20102;-76
2022/08/12 04:55:40;;;;;;;9.55;6.90;;;;;;;17.80;62.29;101783.06;5050488;28;20055;-76
2022/08/12 04:58:06;;;;;;;12.52;7.50;;;;;;;17.79;62.49;101778.72;5032891;28;20029;-76
2022/08/12 05:00:33;;;;;;;18.58;7.25;;;;;;;17.83;62.18;101782.78;5032323;28;20475;-83
2022/08/12 05:02:59;;;;;;;12.45;6.97;;;;;;;17.84;62.46;101782.63;5046061;28;20024;-82
2022/08/12 05:05:24;;;;;;;14.70;7.72;;;;;;;17.83;62.38;101775.63;5051534;28;20482;-75
2022/08/12 05:07:51;;;;;;;15.63;8.07;;;;;;;17.90;62.39;101778.56;5050318;28;20538;-82
2022/08/12 05:10:20;;;;;;;13.05;7.53;;;;;;;17.86;62.49;101777.19;5050403;28;20028;-82
2022/08/12 05:12:50;;;;;;;9.73;7.10;;;;;;;17.87;62.79;101778.00;5050029;28;20029;-76
2022/08/12 05:15:16;;;;;;;11.48;7.60;;;;;;;17.89;62.58;101779.56;5050268;28;20536;-82
2022/08/12 05:17:42;;;;;;;12.00;7.57;;;;;;;17.92;62.78;101789.94;5049199;28;20028;-83
2022/08/12 05:20:09;;;;;;;12.27;7.38;;;;;;;17.94;62.50;101777.31;5045028;28;20087;-82
2022/08/12 05:22:38;;;;;;;10.00;7.00;;;;;;;18.00;62.60;101774.09;5049984;28;20387;-82
2022/08/12 05:25:05;;;;;;;9.57;7.05;;;;;;;17.99;62.70;101774.25;5049612;28;20025;-82
2022/08/12 05:27:34;;;;;;;15.60;8.18;;;;;;;18.04;62.45;101780.84;5050711;28;20382;-82
2022/08/12 05:29:59;;;;;;;9.52;6.78;;;;;;;18.10;62.42;101787.44;5049621;28;20355;-82
2022/08/12 05:32:27;;;;;;;9.38;7.40;;;;;;;18.16;62.33;101786.88;5050412;28;20039;-82
2022/08/12 05:34:52;;;;;;;9.73;7.00;;;;;;;18.19;62.70;101785.75;5049889;28;20024;-82
2022/08/12 05:37:21;;;;;;;12.30;7.53;;;;;;;18.27;61.72;101788.56;5047456;28;20116;-82
2022/08/12 05:39:46;;;;;;;9.75;6.90;;;;;;;18.32;61.86;101791.63;5043689;28;20032;-82
2022/08/12 05:42:11;;;;;;;11.80;7.35;;;;;;;18.38;62.19;101788.41;5047978;28;20099;-82
2022/08/12 05:44:37;;;;;;;9.73;7.18;;;;;;;18.43;61.91;101791.53;5047603;28;20025;-82
2022/08/12 05:47:03;;;;;;;13.35;7.25;;;;;;;18.48;61.57;101791.94;5047874;28;20045;-82
2022/08/12 05:49:28;;;;;;;13.48;7.00;;;;;;;18.53;61.28;101800.34;5050395;28;20098;-82
2022/08/12 05:51:54;;;;;;;10.25;7.63;;;;;;;18.57;61.27;101801.72;5048705;28;20466;-82
2022/08/12 05:54:20;;;;;;;10.10;7.13;;;;;;;18.63;61.10;101798.53;5044500;28;20033;-82
2022/08/12 05:56:45;;;;;;;11.13;7.57;;;;;;;18.69;61.19;101803.28;5048210;28;20116;-83
2022/08/12 05:59:11;;;;;;;9.77;6.82;;;;;;;18.74;60.89;101805.53;5047034;28;20560;-82
2022/08/12 06:01:37;;;;;;;7.45;6.50;;;;;;;18.86;60.55;101795.56;5045511;28;20033;-75
2022/08/12 06:04:03;;;;;;;9.95;7.07;;;;;;;18.92;60.63;101805.66;5046496;28;20108;-75
2022/08/12 06:06:33;;;;;;;14.75;7.20;;;;;;;18.98;60.45;101802.41;5029717;28;20104;-83
2022/08/12 06:08:59;;;;;;;10.15;7.75;;;;;;;19.02;60.49;101812.63;5046704;28;20107;-75
2022/08/12 06:11:24;;;;;;;11.77;7.43;;;;;;;19.11;60.38;101805.56;5047872;28;20538;-75
2022/08/12 06:13:51;;;;;;;13.98;8.82;;;;;;;19.20;60.29;101807.34;5047121;28;20028;-75
2022/08/12 06:16:19;;;;;;;8.98;7.60;;;;;;;19.25;59.77;101807.78;5004534;28;20063;-75
2022/08/12 06:18:45;;;;;;;8.63;7.78;;;;;;;19.35;59.66;101802.41;5048685;28;20120;-75
2022/08/12 06:21:14;;;;;;;9.15;6.80;;;;;;;19.44;59.09;101814.03;5046637;28;20097;-75
2022/08/12 06:23:41;;;;;;;11.15;6.75;;;;;;;19.54;58.99;101801.50;5048103;28;20049;-76
2022/08/12 06:26:11;;;;;;;10.10;6.85;;;;;;;19.61;59.35;101802.56;5047858;28;20441;-76
2022/08/12 06:28:40;;;;;;;9.43;7.20;;;;;;;19.70;58.98;101809.72;5048701;28;20035;-76
2022/08/12 06:31:06;;;;;;;10.65;6.85;;;;;;;19.80;59.00;101806.97;5032869;28;20029;-75
2022/08/12 06:33:33;;;;;;;15.10;6.95;;;;;;;19.91;58.56;101801.41;5047818;28;20028;-76
2022/08/12 06:35:59;;;;;;;10.40;6.68;;;;;;;20.00;57.49;101793.34;5046917;28;20110;-76
2022/08/12 06:38:26;;;;;;;15.88;6.95;;;;;;;20.10;56.96;101800.47;5047313;28;20500;-76
2022/08/12 06:43:39;;;;;;;11.52;6.32;;;;;;;20.36;56.88;101801.34;5048199;28;20035;-76
2022/08/12 06:46:05;;;;;;;15.00;7.40;;;;;;;20.46;56.17;101799.50;5047897;28;20025;-76
2022/08/12 06:48:31;;;;;;;14.40;7.93;;;;;;;20.56;56.14;101797.56;5047513;28;20031;-76
2022/08/12 06:50:57;;;;;;;17.52;7.35;;;;;;;20.68;55.49;101799.97;5046972;28;20025;-76
2022/08/12 06:53:25;;;;;;;11.10;6.57;;;;;;;20.76;55.71;101789.31;5049220;28;20028;-76
2022/08/12 06:55:53;;;;;;;15.32;6.20;;;;;;;20.94;54.63;101792.81;5046984;28;20199;-76
2022/08/12 06:58:19;;;;;;;13.35;6.30;;;;;;;21.09;53.59;101787.69;5048445;28;20029;-75
2022/08/12 07:00:49;;;;;;;14.45;6.18;;;;;;;21.18;53.87;101784.91;5048998;28;20017;-76
2022/08/12 07:03:26;;;;;;;9.68;6.00;;;;;;;21.35;52.15;101779.66;5047559;28;20053;-76
2022/08/12 07:06:00;;;;;;;16.45;5.85;;;;;;;21.53;51.89;101791.13;5047133;28;20079;-76
2022/08/12 07:08:27;;;;;;;17.50;6.20;;;;;;;21.82;52.21;101790.72;5046680;28;20569;-76
2022/08/12 07:10:58;;;;;;;11.93;5.28;;;;;;;22.06;50.31;101784.59;5048122;28;20029;-76
2022/08/12 07:13:45;;;;;;;12.43;5.38;;;;;;;22.28;50.55;101789.28;5048631;28;20122;-76
2022/08/12 07:16:18;;;;;;;12.50;5.20;;;;;;;22.58;49.32;101790.47;5047900;28;20116;-76
2022/08/12 07:18:52;;;;;;;9.82;4.80;;;;;;;22.87;48.04;101779.25;5049176;28;20136;-76
2022/08/12 07:21:18;;;;;;;12.15;5.13;;;;;;;23.17;48.19;101784.84;5049077;28;20025;-76
2022/08/12 07:23:44;;;;;;;12.63;5.20;;;;;;;23.39;47.34;101784.09;5048396;28;20422;-75
2022/08/12 07:26:15;;;;;;;9.13;4.78;;;;;;;23.62;46.42;101789.59;5048706;28;20077;-75
2022/08/12 07:28:42;;;;;;;10.07;4.90;;;;;;;23.78;45.52;101792.16;5047875;28;20021;-75
2022/08/12 07:31:11;;;;;;;14.95;4.95;;;;;;;23.93;45.54;101792.22;5027271;28;20039;-75
2022/08/12 07:33:39;;;;;;;13.55;5.22;;;;;;;24.25;44.57;101801.94;5044596;28;20021;-82
2022/08/12 07:36:06;;;;;;;8.68;4.43;;;;;;;24.50;44.47;101799.94;5041481;28;20033;-82
2022/08/12 07:38:38;;;;;;;12.40;4.30;;;;;;;24.80;42.96;101796.25;5036632;28;20017;-82
2022/08/12 07:41:10;;;;;;;9.13;3.90;;;;;;;25.17;42.12;101792.69;5046800;28;20080;-81
2022/08/12 07:43:38;;;;;;;8.65;4.35;;;;;;;25.43;41.04;101802.16;5045475;28;20903;-82
2022/08/12 07:46:06;;;;;;;9.48;4.00;;;;;;;25.62;40.25;101796.19;5035101;28;20815;-81
2022/08/12 07:48:42;;;;;;;13.13;4.20;;;;;;;25.95;39.96;101801.97;5048986;28;20024;-79
2022/08/12 07:51:08;;;;;;;9.48;4.03;;;;;;;26.15;38.90;101786.00;5053282;28;20352;-80
2022/08/12 07:53:35;;;;;;;9.98;4.30;;;;;;;26.38;38.67;101791.22;5056053;28;20039;-80
2022/08/12 07:56:02;;;;;;;8.60;3.92;;;;;;;26.44;37.87;101791.28;5039654;28;20477;-81
2022/08/12 07:58:27;;;;;;;8.70;4.38;;;;;;;26.61;38.00;101791.00;5045754;28;20096;-81
2022/08/12 08:00:56;;;;;;;7.22;3.50;;;;;;;26.82;37.66;101796.38;5056756;28;20029;-81
2022/08/12 08:03:24;;;;;;;11.70;4.30;;;;;;;27.10;36.78;101790.94;5054109;28;20025;-81
2022/08/12 08:05:50;;;;;;;11.35;3.50;;;;;;;27.39;36.88;101796.09;5049339;28;20032;-81
2022/08/12 08:08:19;;;;;;;15.02;3.47;;;;;;;27.53;37.11;101790.72;5047968;28;20028;-82
2022/08/12 08:10:45;;;;;;;5.93;3.63;;;;;;;27.62;35.48;101803.06;5052112;28;20385;-81
2022/08/12 08:13:11;;;;;;;12.32;3.80;;;;;;;27.85;35.63;101792.75;5040073;28;20079;-81
2022/08/12 08:15:38;;;;;;;6.72;3.40;;;;;;;27.96;35.66;101796.72;5043918;28;20036;-81
2022/08/12 08:18:09;;;;;;;8.27;3.63;;;;;;;28.18;35.11;101794.69;5048545;28;20033;-81
2022/08/12 08:20:39;;;;;;;9.13;3.40;;;;;;;28.16;34.73;101797.59;5010401;28;20079;-81
2022/08/12 08:23:10;;;;;;;8.13;3.33;;;;;;;28.13;35.21;101797.19;5032247;28;20112;-81
2022/08/12 08:25:37;;;;;;;7.80;3.78;;;;;;;27.85;35.14;101800.03;5047365;28;20116;-82
2022/08/12 08:28:15;;;;;;;9.52;3.63;;;;;;;28.11;36.49;101799.25;5046981;28;20419;-80
2022/08/12 08:30:44;;;;;;;11.18;3.92;;;;;;;28.27;36.06;101802.44;5037430;28;20107;-81
2022/08/12 08:33:11;;;;;;;7.40;3.53;;;;;;;28.39;33.90;101798.03;5032194;28;20021;-82
2022/08/12 08:35:41;;;;;;;7.57;3.60;;;;;;;28.57;33.90;101802.03;5037104;28;20025;-81
2022/08/12 08:38:16;;;;;;;8.55;3.83;;;;;;;28.71;34.83;101801.78;5030892;28;20455;-82
2022/08/12 08:43:31;;;;;;;7.47;3.50;;;;;;;28.76;33.42;101797.63;5050663;28;20039;-81
2022/08/12 08:45:57;;;;;;;7.93;3.45;;;;;;;28.92;33.32;101802.66;5049384;28;20403;-81
2022/08/12 08:48:23;;;;;;;8.38;3.58;;;;;;;28.98;34.60;101799.09;5048425;28;20108;-81
2022/08/12 08:50:49;;;;;;;11.45;3.47;;;;;;;29.20;33.67;101805.88;5050224;28;20025;-81
2022/08/12 08:53:16;;;;;;;8.45;3.55;;;;;;;29.41;33.01;101804.78;5048140;28;20025;-82
2022/08/12 08:55:41;;;;;;;11.88;3.50;;;;;;;29.40;31.79;101802.31;5046156;28;20143;-82
2022/08/12 08:58:07;;;;;;;5.45;3.20;;;;;;;29.56;31.76;101805.38;5047811;28;20120;-82
2022/08/12 09:00:36;;;;;;;9.00;3.22;;;;;;;29.81;31.18;101797.31;5042519;28;20036;-82
2022/08/12 09:03:02;;;;;;;13.82;3.35;;;;;;;29.89;30.96;101794.34;5049962;28;20036;-82
2022/08/12 09:05:28;;;;;;;7.30;3.20;;;;;;;30.02;30.36;101790.78;5019566;28;20390;-82
2022/08/12 09:07:55;;;;;;;7.72;3.03;;;;;;;29.90;30.24;101789.75;5033440;28;20024;-82
2022/08/12 09:10:23;;;;;;;15.77;3.15;;;;;;;29.91;30.47;101786.00;5051561;28;20095;-81
2022/08/12 09:15:37;;;;;;;11.68;3.38;;;;;;;29.80;29.16;101782.09;5043459;28;20121;-82
2022/08/12 09:18:06;;;;;;;9.93;2.92;;;;;;;30.10;30.39;101785.06;5047882;28;20118;-82
2022/08/12 09:20:33;;;;;;;8.00;3.05;;;;;;;30.31;29.28;101783.03;5036942;28;20068;-82
2022/08/12 09:23:07;;;;;;;9.35;3.00;;;;;;;30.36;28.82;101792.16;5059894;28;20027;-81
2022/08/12 09:25:33;;;;;;;5.10;3.00;;;;;;;30.52;28.84;101782.66;5053011;28;20083;-81
2022/08/12 09:27:59;;;;;;;7.95;3.40;;;;;;;30.30;30.54;101781.38;5048172;28;20043;-81
2022/08/12 09:30:25;;;;;;;5.68;3.05;;;;;;;30.44;30.68;101781.06;5047558;28;20017;-81
2022/08/12 09:32:54;;;;;;;5.78;2.60;;;;;;;30.56;28.53;101773.00;5050579;28;20025;-81
2022/08/12 09:35:26;;;;;;;11.38;3.00;;;;;;;31.02;28.00;101777.16;5047922;28;20052;-74
2022/08/12 09:37:56;;;;;;;6.57;2.55;;;;;;;31.25;27.65;101765.63;5046890;28;20497;-81
2022/08/12 09:40:23;;;;;;;7.25;2.60;;;;;;;31.36;27.58;101773.03;5052388;28;20029;-82
2022/08/12 09:45:34;;;;;;;5.97;2.70;;;;;;;31.38;26.74;101771.72;5055737;28;20520;-82
2022/08/12 09:48:02;;;;;;;5.70;2.50;;;;;;;31.46;26.06;101762.41;5057635;28;20586;-75
2022/08/12 09:50:28;;;;;;;4.47;2.42;;;;;;;31.49;26.22;101760.06;5049499;28;20013;-75
2022/08/12 09:53:08;;;;;;;4.88;2.70;;;;;;;31.69;26.64;101767.13;5046340;28;20048;-74
2022/08/12 09:55:34;;;;;;;7.00;2.60;;;;;;;31.69;26.37;101759.81;5044301;28;20112;-76
2022/08/12 09:58:02;;;;;;;11.45;3.13;;;;;;;31.73;26.74;101761.03;5036888;28;20021;-74
2022/08/12 10:00:27;;;;;;;7.28;2.90;;;;;;;31.67;26.73;101759.22;5044752;28;20417;-75
2022/08/12 10:03:00;;;;;;;7.38;2.60;;;;;;;31.65;26.18;101753.16;5052291;28;20024;-75
2022/08/12 10:05:26;;;;;;;6.40;2.75;;;;;;;31.57;25.95;101747.19;5055432;28;20027;-75
2022/08/12 10:07:52;;;;;;;7.30;3.03;;;;;;;31.88;26.95;101741.53;5052681;28;20017;-75
2022/08/12 10:10:18;;;;;;;5.22;3.13;;;;;;;31.96;25.78;101740.38;5057571;28;20037;-75
2022/08/12 10:15:30;;;;;;;4.60;2.60;;;;;;;32.05;25.55;101739.81;5045607;28;20501;-81
2022/08/12 10:17:55;;;;;;;5.38;2.65;;;;;;;32.09;25.61;101738.28;5048952;28;20036;-74
2022/08/12 10:20:20;;;;;;;11.63;2.90;;;;;;;32.19;25.61;101737.69;5047329;28;20016;-80
2022/08/12 10:23:12;;;;;;;7.80;2.55;;;;;;;32.22;25.56;101745.38;5049559;28;20020;-81
2022/08/12 10:31:06;;;;;;;13.98;3.40;;;;;;;32.03;25.54;101730.22;5046523;28;20064;-74
2022/08/12 10:33:33;;;;;;;5.78;2.50;;;;;;;32.04;25.43;101727.25;5043760;28;20052;-75
2022/08/12 10:36:00;;;;;;;6.22;2.70;;;;;;;32.19;24.97;101725.97;5047422;28;20468;-75
2022/08/12 10:38:26;;;;;;;14.00;2.80;;;;;;;32.43;25.52;101719.50;5046859;28;20092;-73
2022/08/12 10:43:41;;;;;;;3.75;2.30;;;;;;;32.72;24.82;101710.34;5049059;28;20036;-74
2022/08/12 10:46:16;;;;;;;8.88;2.70;;;;;;;32.45;24.71;101716.53;5046681;28;20025;-74
2022/08/12 10:48:47;;;;;;;6.82;2.70;;;;;;;32.45;24.57;101711.91;5049144;28;20118;-74
2022/08/12 10:51:13;;;;;;;5.00;2.60;;;;;;;32.34;24.76;101708.13;5047660;28;20039;-74
2022/08/12 10:53:40;;;;;;;8.63;2.88;;;;;;;32.24;24.92;101704.28;5047318;28;20024;-82
2022/08/12 10:56:06;;;;;;;9.60;2.50;;;;;;;32.12;24.49;101704.28;5046524;28;20044;-74
2022/08/12 10:58:36;;;;;;;4.40;2.50;;;;;;;31.97;25.06;101701.19;5048808;28;20029;-74
2022/08/12 11:01:04;;;;;;;6.03;2.58;;;;;;;31.97;24.79;101698.47;5047746;28;20056;-82
2022/08/12 11:03:33;;;;;;;5.75;2.60;;;;;;;32.00;23.49;101698.00;5044928;28;20111;-75
2022/08/12 11:05:59;;;;;;;3.80;2.42;;;;;;;32.32;24.85;101693.06;5044571;28;20078;-75
2022/08/12 11:08:26;;;;;;;6.47;2.75;;;;;;;32.06;24.43;101688.91;5075174;28;20025;-80
2022/08/12 11:10:52;;;;;;;5.72;2.70;;;;;;;31.80;24.38;101684.72;5029244;28;20128;-82
2022/08/12 11:13:18;;;;;;;7.70;2.70;;;;;;;31.54;25.47;101677.75;5043297;28;20103;-82
2022/08/12 11:15:44;;;;;;;8.60;2.45;;;;;;;31.62;24.84;101674.72;5045471;28;20053;-82
2022/08/12 11:18:11;;;;;;;6.13;2.40;;;;;;;31.65;24.66;101679.69;5031104;28;20457;-82
2022/08/12 11:20:37;;;;;;;7.13;2.70;;;;;;;31.59;24.67;101675.16;5037089;28;20028;-82
2022/08/12 11:23:02;;;;;;;7.97;2.45;;;;;;;31.35;25.13;101682.44;5060297;28;20463;-82
2022/08/12 11:25:28;;;;;;;4.07;2.72;;;;;;;31.26;25.01;101683.00;5052018;28;20025;-82
2022/08/12 11:27:53;;;;;;;7.70;2.75;;;;;;;31.31;25.28;101661.38;5042575;28;20025;-83
2022/08/12 11:30:19;;;;;;;6.15;2.60;;;;;;;31.53;25.61;101659.75;5033620;28;20071;-82
2022/08/12 11:32:44;;;;;;;5.47;2.63;;;;;;;31.53;24.99;101667.91;5034613;28;20100;-82
2022/08/12 11:35:09;;;;;;;9.25;2.65;;;;;;;31.68;24.26;101670.22;5048168;28;20033;-82
2022/08/12 11:37:37;;;;;;;5.13;2.63;;;;;;;31.85;24.75;101667.69;5041445;28;20021;-82
2022/08/12 11:40:03;;;;;;;4.32;2.85;;;;;;;31.94;24.97;101655.38;5051079;28;20390;-82
2022/08/12 11:42:29;;;;;;;8.13;2.40;;;;;;;32.17;24.74;101652.66;5031934;28;20493;-82
2022/08/12 11:44:54;;;;;;;4.63;2.42;;;;;;;32.30;24.40;101657.06;5058119;28;20063;-83
2022/08/12 11:47:19;;;;;;;5.18;2.78;;;;;;;32.40;24.38;101660.84;5038251;28;20550;-83
2022/08/12 11:49:44;;;;;;;6.97;2.95;;;;;;;32.28;24.35;101651.84;5041674;28;20029;-82
2022/08/12 11:52:10;;;;;;;7.95;2.63;;;;;;;32.27;24.10;101641.19;5044822;28;20075;-82
2022/08/12 11:54:35;;;;;;;4.30;2.80;;;;;;;32.31;24.09;101654.09;5035659;28;20025;-82
2022/08/12 11:57:01;;;;;;;5.13;2.20;;;;;;;32.09;24.21;101647.59;5035810;28;20494;-82
2022/08/12 11:59:27;;;;;;;5.38;2.55;;;;;;;32.17;24.51;101649.94;5042728;28;20090;-81
2022/08/12 12:01:52;;;;;;;5.65;2.67;;;;;;;32.05;23.78;101651.84;5040790;28;20028;-75
2022/08/12 12:04:17;;;;;;;7.63;2.50;;;;;;;32.23;24.75;101638.09;5034774;28;20031;-75
2022/08/12 12:06:43;;;;;;;4.53;2.67;;;;;;;32.41;23.52;101637.97;5049557;28;20145;-75
2022/08/12 12:09:08;;;;;;;5.53;3.08;;;;;;;32.50;23.68;101638.47;5036088;28;20025;-75
2022/08/12 12:11:34;;;;;;;6.07;2.50;;;;;;;32.37;24.77;101628.63;5049451;28;20024;-75
2022/08/12 12:13:59;;;;;;;11.27;2.72;;;;;;;32.52;24.09;101619.13;5032886;28;20060;-75
2022/08/12 12:16:24;;;;;;;7.15;2.45;;;;;;;32.70;24.26;101616.25;5040341;28;20029;-75
2022/08/12 12:18:50;;;;;;;3.40;2.17;;;;;;;32.77;23.32;101611.47;5035653;28;20032;-75
2022/08/12 12:21:15;;;;;;;5.22;3.00;;;;;;;32.67;23.40;101616.72;5036199;28;20044;-75
2022/08/12 12:23:41;;;;;;;8.90;2.70;;;;;;;32.62;23.35;101630.25;5036510;28;20029;-75
2022/08/12 12:26:06;;;;;;;7.75;2.70;;;;;;;32.56;23.84;101626.59;5037748;28;20546;-75
2022/08/12 12:28:35;;;;;;;4.70;2.30;;;;;;;32.65;23.18;101625.16;5041094;28;20068;-75
2022/08/12 12:31:00;;;;;;;3.35;2.33;;;;;;;32.83;22.95;101621.47;5035061;28;20029;-75
2022/08/12 12:33:26;;;;;;;4.63;2.60;;;;;;;32.84;23.44;101622.28;5050291;28;20390;-82
2022/08/12 12:35:54;;;;;;;4.20;2.60;;;;;;;32.81;23.52;101611.84;5048458;28;20029;-82
2022/08/12 12:38:20;;;;;;;5.13;2.75;;;;;;;32.93;24.23;101604.47;5036866;28;20482;-83
2022/08/12 12:40:47;;;;;;;6.90;2.83;;;;;;;33.05;23.37;101602.50;5036058;28;20059;-82
2022/08/12 12:43:14;;;;;;;6.55;2.45;;;;;;;32.86;22.55;101609.25;5031621;28;20028;-83
2022/08/12 12:45:40;;;;;;;3.47;2.38;;;;;;;32.72;22.88;101608.66;5050505;28;20070;-82
2022/08/12 12:48:11;;;;;;;7.57;2.58;;;;;;;32.82;24.15;101595.25;5041271;28;20470;-82
2022/08/12 12:53:37;;;;;;;10.82;2.60;;;;;;;32.88;23.12;101601.66;5030799;28;20379;-82
2022/08/12 12:56:03;;;;;;;7.95;2.80;;;;;;;32.79;23.09;101592.19;5039539;28;20025;-82
2022/08/12 12:58:28;;;;;;;11.73;3.05;;;;;;;32.67;23.14;101584.84;5033992;28;20025;-81
2022/08/12 13:01:00;;;;;;;6.13;2.80;;;;;;;33.02;23.12;101589.34;5042231;28;20022;-82
2022/08/12 13:03:26;;;;;;;4.88;2.70;;;;;;;33.09;23.06;101586.47;5033892;28;20018;-82
2022/08/12 13:05:55;;;;;;;5.07;2.72;;;;;;;33.10;23.53;101583.50;5034914;28;20028;-75
2022/08/12 13:08:24;;;;;;;7.38;3.10;;;;;;;33.06;24.04;101578.78;5029907;28;20029;-74
2022/08/12 13:10:50;;;;;;;6.35;3.05;;;;;;;33.09;23.60;101583.75;5047091;28;20061;-74
2022/08/12 13:13:18;;;;;;;10.55;3.30;;;;;;;33.05;23.80;101569.78;5048078;28;20147;-74